sensor_id;sensor_type;location;lat;lon;timestamp;P1;durP1;ratioP1;P2;durP2;ratioP2
74503;SDS011;62988;55.776;37.544;2022-11-15T00:00:50;2.28;;;0.45;;
74503;SDS011;62988;55.776;37.544;2022-11-15T00:03:16;1.83;;;0.20;;
74503;SDS011;62988;55.776;37.544;2022-11-15T00:05:43;1.30;;;0.40;;
74503;SDS011;62988;55.776;37.544;2022-11-15T00:08:09;3.20;;;0.47;;
74503;SDS011;62988;55.776;37.544;2022-11-15T00:10:35;1.05;;;0.30;;
74503;SDS011;62988;55.776;37.544;2022-11-15T00:13:08;2.05;;;0.70;;
74503;SDS011;62988;55.776;37.544;2022-11-15T00:15:36;1.50;;;0.45;;
74503;SDS011;62988;55.776;37.544;2022-11-15T00:18:03;1.58;;;0.60;;
74503;SDS011;62988;55.776;37.544;2022-11-15T00:20:30;1.73;;;0.40;;
74503;SDS011;62988;55.776;37.544;2022-11-15T00:22:56;1.33;;;0.32;;
74503;SDS011;62988;55.776;37.544;2022-11-15T00:25:21;0.68;;;0.50;;
74503;SDS011;62988;55.776;37.544;2022-11-15T00:27:47;1.63;;;0.43;;
74503;SDS011;62988;55.776;37.544;2022-11-15T00:30:12;2.50;;;0.40;;
74503;SDS011;62988;55.776;37.544;2022-11-15T00:32:38;1.55;;;0.50;;
74503;SDS011;62988;55.776;37.544;2022-11-15T00:35:04;3.88;;;0.77;;
74503;SDS011;62988;55.776;37.544;2022-11-15T00:37:29;3.60;;;0.60;;
74503;SDS011;62988;55.776;37.544;2022-11-15T00:39:55;1.42;;;0.40;;
74503;SDS011;62988;55.776;37.544;2022-11-15T00:42:20;3.75;;;0.50;;
74503;SDS011;62988;55.776;37.544;2022-11-15T00:44:46;3.25;;;0.50;;
74503;SDS011;62988;55.776;37.544;2022-11-15T00:47:11;2.35;;;0.55;;
74503;SDS011;62988;55.776;37.544;2022-11-15T00:49:37;3.58;;;0.52;;
74503;SDS011;62988;55.776;37.544;2022-11-15T00:52:03;2.00;;;0.50;;
74503;SDS011;62988;55.776;37.544;2022-11-15T00:54:28;1.90;;;0.40;;
74503;SDS011;62988;55.776;37.544;2022-11-15T00:56:54;2.75;;;0.40;;
74503;SDS011;62988;55.776;37.544;2022-11-15T00:59:19;2.70;;;0.57;;
74503;SDS011;62988;55.776;37.544;2022-11-15T01:01:45;5.22;;;0.82;;
74503;SDS011;62988;55.776;37.544;2022-11-15T01:04:10;2.60;;;0.52;;
74503;SDS011;62988;55.776;37.544;2022-11-15T01:06:36;2.20;;;0.88;;
74503;SDS011;62988;55.776;37.544;2022-11-15T01:09:01;2.75;;;0.45;;
74503;SDS011;62988;55.776;37.544;2022-11-15T01:11:27;4.85;;;0.60;;
74503;SDS011;62988;55.776;37.544;2022-11-15T01:13:52;1.88;;;0.60;;
74503;SDS011;62988;55.776;37.544;2022-11-15T01:16:20;2.58;;;0.63;;
74503;SDS011;62988;55.776;37.544;2022-11-15T01:18:46;0.98;;;0.40;;
74503;SDS011;62988;55.776;37.544;2022-11-15T01:21:15;5.70;;;1.20;;
74503;SDS011;62988;55.776;37.544;2022-11-15T01:23:43;2.13;;;0.43;;
74503;SDS011;62988;55.776;37.544;2022-11-15T01:26:11;3.97;;;0.50;;
74503;SDS011;62988;55.776;37.544;2022-11-15T01:28:39;4.75;;;0.77;;
74503;SDS011;62988;55.776;37.544;2022-11-15T01:31:06;3.95;;;0.50;;
74503;SDS011;62988;55.776;37.544;2022-11-15T01:33:36;5.05;;;0.68;;
74503;SDS011;62988;55.776;37.544;2022-11-15T01:36:06;5.15;;;0.68;;
74503;SDS011;62988;55.776;37.544;2022-11-15T01:38:35;1.73;;;0.50;;
74503;SDS011;62988;55.776;37.544;2022-11-15T01:41:01;3.55;;;0.80;;
74503;SDS011;62988;55.776;37.544;2022-11-15T01:43:28;1.85;;;0.52;;
74503;SDS011;62988;55.776;37.544;2022-11-15T01:45:56;1.52;;;0.60;;
74503;SDS011;62988;55.776;37.544;2022-11-15T01:48:31;3.65;;;0.80;;
74503;SDS011;62988;55.776;37.544;2022-11-15T01:50:59;2.80;;;0.82;;
74503;SDS011;62988;55.776;37.544;2022-11-15T01:53:28;2.00;;;0.45;;
74503;SDS011;62988;55.776;37.544;2022-11-15T01:55:55;4.95;;;0.70;;
74503;SDS011;62988;55.776;37.544;2022-11-15T01:58:21;3.65;;;0.55;;
74503;SDS011;62988;55.776;37.544;2022-11-15T02:00:47;2.63;;;0.68;;
74503;SDS011;62988;55.776;37.544;2022-11-15T02:03:14;0.77;;;0.30;;
74503;SDS011;62988;55.776;37.544;2022-11-15T02:05:40;2.53;;;0.45;;
74503;SDS011;62988;55.776;37.544;2022-11-15T02:08:08;2.53;;;0.50;;
74503;SDS011;62988;55.776;37.544;2022-11-15T02:10:44;3.70;;;0.52;;
74503;SDS011;62988;55.776;37.544;2022-11-15T02:13:12;3.35;;;0.60;;
74503;SDS011;62988;55.776;37.544;2022-11-15T02:15:44;3.05;;;0.57;;
74503;SDS011;62988;55.776;37.544;2022-11-15T02:18:46;2.70;;;0.52;;
74503;SDS011;62988;55.776;37.544;2022-11-15T02:21:28;5.90;;;0.40;;
74503;SDS011;62988;55.776;37.544;2022-11-15T02:29:11;1.77;;;0.40;;
74503;SDS011;62988;55.776;37.544;2022-11-15T02:42:21;1.55;;;0.30;;
74503;SDS011;62988;55.776;37.544;2022-11-15T02:45:11;4.45;;;0.75;;
74503;SDS011;62988;55.776;37.544;2022-11-15T02:47:43;1.38;;;0.30;;
74503;SDS011;62988;55.776;37.544;2022-11-15T02:50:12;1.40;;;0.30;;
74503;SDS011;62988;55.776;37.544;2022-11-15T02:52:40;2.53;;;0.70;;
74503;SDS011;62988;55.776;37.544;2022-11-15T02:57:59;1.98;;;0.43;;
74503;SDS011;62988;55.776;37.544;2022-11-15T03:00:55;1.98;;;0.40;;
74503;SDS011;62988;55.776;37.544;2022-11-15T03:03:32;1.50;;;0.35;;
74503;SDS011;62988;55.776;37.544;2022-11-15T03:08:57;1.58;;;0.40;;
74503;SDS011;62988;55.776;37.544;2022-11-15T03:12:18;8.27;;;0.63;;
74503;SDS011;62988;55.776;37.544;2022-11-15T03:15:29;5.18;;;0.70;;
74503;SDS011;62988;55.776;37.544;2022-11-15T03:17:45;3.80;;;0.45;;
74503;SDS011;62988;55.776;37.544;2022-11-15T03:20:29;2.97;;;0.52;;
74503;SDS011;62988;55.776;37.544;2022-11-15T03:22:58;3.35;;;0.77;;
74503;SDS011;62988;55.776;37.544;2022-11-15T03:25:29;1.95;;;0.50;;
74503;SDS011;62988;55.776;37.544;2022-11-15T03:27:57;2.95;;;0.70;;
74503;SDS011;62988;55.776;37.544;2022-11-15T03:30:27;5.40;;;0.82;;
74503;SDS011;62988;55.776;37.544;2022-11-15T03:32:56;3.60;;;0.82;;
74503;SDS011;62988;55.776;37.544;2022-11-15T03:35:33;2.65;;;0.60;;
74503;SDS011;62988;55.776;37.544;2022-11-15T03:46:03;2.90;;;0.60;;
74503;SDS011;62988;55.776;37.544;2022-11-15T03:48:34;3.38;;;0.63;;
74503;SDS011;62988;55.776;37.544;2022-11-15T03:51:04;4.07;;;0.80;;
74503;SDS011;62988;55.776;37.544;2022-11-15T03:53:31;1.40;;;0.40;;
74503;SDS011;62988;55.776;37.544;2022-11-15T03:55:57;2.15;;;0.60;;
74503;SDS011;62988;55.776;37.544;2022-11-15T03:58:23;4.72;;;0.80;;
74503;SDS011;62988;55.776;37.544;2022-11-15T04:00:49;3.03;;;0.85;;
74503;SDS011;62988;55.776;37.544;2022-11-15T04:03:14;4.10;;;0.90;;
74503;SDS011;62988;55.776;37.544;2022-11-15T04:05:40;2.83;;;0.63;;
74503;SDS011;62988;55.776;37.544;2022-11-15T04:08:05;4.82;;;0.80;;
74503;SDS011;62988;55.776;37.544;2022-11-15T04:10:31;4.88;;;0.98;;
74503;SDS011;62988;55.776;37.544;2022-11-15T04:12:56;2.88;;;0.93;;
74503;SDS011;62988;55.776;37.544;2022-11-15T04:15:24;2.30;;;0.68;;
74503;SDS011;62988;55.776;37.544;2022-11-15T04:23:15;3.03;;;0.70;;
74503;SDS011;62988;55.776;37.544;2022-11-15T04:26:02;2.47;;;0.80;;
74503;SDS011;62988;55.776;37.544;2022-11-15T04:28:30;5.72;;;1.42;;
74503;SDS011;62988;55.776;37.544;2022-11-15T04:30:55;7.20;;;0.77;;
74503;SDS011;62988;55.776;37.544;2022-11-15T04:33:21;3.25;;;0.55;;
74503;SDS011;62988;55.776;37.544;2022-11-15T04:35:48;2.97;;;0.47;;
74503;SDS011;62988;55.776;37.544;2022-11-15T04:38:34;6.65;;;0.75;;
74503;SDS011;62988;55.776;37.544;2022-11-15T04:41:01;7.40;;;1.02;;
74503;SDS011;62988;55.776;37.544;2022-11-15T04:43:28;5.65;;;0.85;;
74503;SDS011;62988;55.776;37.544;2022-11-15T04:45:53;3.08;;;0.65;;
74503;SDS011;62988;55.776;37.544;2022-11-15T04:48:19;3.60;;;0.80;;
74503;SDS011;62988;55.776;37.544;2022-11-15T04:50:44;3.28;;;0.70;;
74503;SDS011;62988;55.776;37.544;2022-11-15T04:53:13;3.75;;;0.77;;
74503;SDS011;62988;55.776;37.544;2022-11-15T04:55:39;10.43;;;0.98;;
74503;SDS011;62988;55.776;37.544;2022-11-15T04:58:04;3.42;;;0.70;;
74503;SDS011;62988;55.776;37.544;2022-11-15T05:00:30;3.65;;;0.63;;
74503;SDS011;62988;55.776;37.544;2022-11-15T05:02:56;6.38;;;1.25;;
74503;SDS011;62988;55.776;37.544;2022-11-15T05:05:41;4.85;;;1.80;;
74503;SDS011;62988;55.776;37.544;2022-11-15T05:08:06;5.60;;;1.05;;
74503;SDS011;62988;55.776;37.544;2022-11-15T05:10:32;4.28;;;0.90;;
74503;SDS011;62988;55.776;37.544;2022-11-15T05:12:58;5.30;;;1.13;;
74503;SDS011;62988;55.776;37.544;2022-11-15T05:15:23;4.03;;;0.95;;
74503;SDS011;62988;55.776;37.544;2022-11-15T05:17:49;2.03;;;0.80;;
74503;SDS011;62988;55.776;37.544;2022-11-15T05:20:14;4.45;;;1.10;;
74503;SDS011;62988;55.776;37.544;2022-11-15T05:22:40;3.92;;;1.00;;
74503;SDS011;62988;55.776;37.544;2022-11-15T05:25:06;5.70;;;1.10;;
74503;SDS011;62988;55.776;37.544;2022-11-15T05:27:32;3.83;;;1.20;;
74503;SDS011;62988;55.776;37.544;2022-11-15T05:29:58;10.00;;;1.63;;
74503;SDS011;62988;55.776;37.544;2022-11-15T05:32:23;5.47;;;1.23;;
74503;SDS011;62988;55.776;37.544;2022-11-15T05:34:49;9.98;;;1.30;;
74503;SDS011;62988;55.776;37.544;2022-11-15T05:37:15;3.53;;;1.13;;
74503;SDS011;62988;55.776;37.544;2022-11-15T05:39:41;3.15;;;0.85;;
74503;SDS011;62988;55.776;37.544;2022-11-15T05:42:11;3.53;;;0.85;;
74503;SDS011;62988;55.776;37.544;2022-11-15T05:44:39;5.22;;;2.08;;
74503;SDS011;62988;55.776;37.544;2022-11-15T05:47:11;5.45;;;1.20;;
74503;SDS011;62988;55.776;37.544;2022-11-15T05:49:41;8.63;;;0.90;;
74503;SDS011;62988;55.776;37.544;2022-11-15T05:52:09;3.58;;;1.38;;
74503;SDS011;62988;55.776;37.544;2022-11-15T05:54:39;3.88;;;1.45;;
74503;SDS011;62988;55.776;37.544;2022-11-15T05:57:05;8.27;;;1.20;;
74503;SDS011;62988;55.776;37.544;2022-11-15T05:59:31;6.45;;;1.40;;
74503;SDS011;62988;55.776;37.544;2022-11-15T06:01:58;5.70;;;1.33;;
74503;SDS011;62988;55.776;37.544;2022-11-15T06:04:24;8.98;;;1.35;;
74503;SDS011;62988;55.776;37.544;2022-11-15T06:06:50;7.53;;;1.13;;
74503;SDS011;62988;55.776;37.544;2022-11-15T06:09:16;4.25;;;1.00;;
74503;SDS011;62988;55.776;37.544;2022-11-15T06:11:41;9.50;;;1.60;;
74503;SDS011;62988;55.776;37.544;2022-11-15T06:14:07;5.53;;;0.98;;
74503;SDS011;62988;55.776;37.544;2022-11-15T06:16:32;3.38;;;0.90;;
74503;SDS011;62988;55.776;37.544;2022-11-15T06:18:58;5.40;;;1.13;;
74503;SDS011;62988;55.776;37.544;2022-11-15T06:21:23;3.15;;;0.90;;
74503;SDS011;62988;55.776;37.544;2022-11-15T06:23:49;5.72;;;1.08;;
74503;SDS011;62988;55.776;37.544;2022-11-15T06:26:14;4.80;;;1.20;;
74503;SDS011;62988;55.776;37.544;2022-11-15T06:28:40;2.55;;;1.20;;
74503;SDS011;62988;55.776;37.544;2022-11-15T06:31:07;4.47;;;1.05;;
74503;SDS011;62988;55.776;37.544;2022-11-15T06:33:34;2.03;;;0.60;;
74503;SDS011;62988;55.776;37.544;2022-11-15T06:36:03;10.73;;;1.30;;
74503;SDS011;62988;55.776;37.544;2022-11-15T06:38:30;6.28;;;1.20;;
74503;SDS011;62988;55.776;37.544;2022-11-15T06:41:03;4.45;;;1.02;;
74503;SDS011;62988;55.776;37.544;2022-11-15T06:43:30;3.15;;;1.17;;
74503;SDS011;62988;55.776;37.544;2022-11-15T06:45:57;9.80;;;1.20;;
74503;SDS011;62988;55.776;37.544;2022-11-15T06:48:26;2.15;;;0.80;;
74503;SDS011;62988;55.776;37.544;2022-11-15T06:50:56;2.88;;;1.08;;
74503;SDS011;62988;55.776;37.544;2022-11-15T06:53:23;3.92;;;0.88;;
74503;SDS011;62988;55.776;37.544;2022-11-15T06:55:49;7.53;;;1.73;;
74503;SDS011;62988;55.776;37.544;2022-11-15T06:58:15;6.85;;;1.27;;
74503;SDS011;62988;55.776;37.544;2022-11-15T07:00:40;3.83;;;1.05;;
74503;SDS011;62988;55.776;37.544;2022-11-15T07:03:06;7.80;;;1.02;;
74503;SDS011;62988;55.776;37.544;2022-11-15T07:05:31;4.22;;;1.15;;
74503;SDS011;62988;55.776;37.544;2022-11-15T07:07:57;4.30;;;0.90;;
74503;SDS011;62988;55.776;37.544;2022-11-15T07:10:24;6.07;;;1.05;;
74503;SDS011;62988;55.776;37.544;2022-11-15T07:12:53;6.32;;;1.25;;
74503;SDS011;62988;55.776;37.544;2022-11-15T07:15:21;6.00;;;1.52;;
74503;SDS011;62988;55.776;37.544;2022-11-15T07:17:49;6.53;;;1.30;;
74503;SDS011;62988;55.776;37.544;2022-11-15T07:20:15;5.28;;;0.90;;
74503;SDS011;62988;55.776;37.544;2022-11-15T07:22:41;3.67;;;0.73;;
74503;SDS011;62988;55.776;37.544;2022-11-15T07:25:07;6.68;;;1.40;;
74503;SDS011;62988;55.776;37.544;2022-11-15T07:27:34;6.05;;;1.13;;
74503;SDS011;62988;55.776;37.544;2022-11-15T07:29:59;6.43;;;1.35;;
74503;SDS011;62988;55.776;37.544;2022-11-15T07:32:25;5.97;;;1.20;;
74503;SDS011;62988;55.776;37.544;2022-11-15T07:34:51;5.47;;;1.35;;
74503;SDS011;62988;55.776;37.544;2022-11-15T07:37:17;5.72;;;1.27;;
74503;SDS011;62988;55.776;37.544;2022-11-15T07:39:42;15.35;;;5.88;;
74503;SDS011;62988;55.776;37.544;2022-11-15T07:42:09;4.03;;;1.20;;
74503;SDS011;62988;55.776;37.544;2022-11-15T07:44:53;7.00;;;1.27;;
74503;SDS011;62988;55.776;37.544;2022-11-15T07:47:19;4.88;;;1.33;;
74503;SDS011;62988;55.776;37.544;2022-11-15T07:49:45;2.08;;;0.98;;
74503;SDS011;62988;55.776;37.544;2022-11-15T07:52:11;9.70;;;1.40;;
74503;SDS011;62988;55.776;37.544;2022-11-15T07:54:37;5.38;;;1.25;;
74503;SDS011;62988;55.776;37.544;2022-11-15T07:57:03;4.80;;;0.70;;
74503;SDS011;62988;55.776;37.544;2022-11-15T07:59:29;3.15;;;0.95;;
74503;SDS011;62988;55.776;37.544;2022-11-15T08:01:55;6.93;;;1.20;;
74503;SDS011;62988;55.776;37.544;2022-11-15T08:04:21;2.83;;;0.85;;
74503;SDS011;62988;55.776;37.544;2022-11-15T08:06:47;8.73;;;0.80;;
74503;SDS011;62988;55.776;37.544;2022-11-15T08:09:12;3.90;;;0.90;;
74503;SDS011;62988;55.776;37.544;2022-11-15T08:11:38;4.60;;;1.60;;
74503;SDS011;62988;55.776;37.544;2022-11-15T08:14:03;4.95;;;1.00;;
74503;SDS011;62988;55.776;37.544;2022-11-15T08:16:29;6.35;;;1.00;;
74503;SDS011;62988;55.776;37.544;2022-11-15T08:18:54;4.70;;;1.23;;
74503;SDS011;62988;55.776;37.544;2022-11-15T08:21:20;6.63;;;1.10;;
74503;SDS011;62988;55.776;37.544;2022-11-15T08:23:46;4.22;;;0.85;;
74503;SDS011;62988;55.776;37.544;2022-11-15T08:26:12;5.85;;;1.30;;
74503;SDS011;62988;55.776;37.544;2022-11-15T08:28:38;4.95;;;0.75;;
74503;SDS011;62988;55.776;37.544;2022-11-15T08:31:04;4.05;;;0.88;;
74503;SDS011;62988;55.776;37.544;2022-11-15T08:33:30;7.72;;;1.23;;
74503;SDS011;62988;55.776;37.544;2022-11-15T08:35:57;5.32;;;1.30;;
74503;SDS011;62988;55.776;37.544;2022-11-15T08:38:23;6.30;;;1.10;;
74503;SDS011;62988;55.776;37.544;2022-11-15T08:40:50;7.07;;;1.40;;
74503;SDS011;62988;55.776;37.544;2022-11-15T08:43:17;11.13;;;1.73;;
74503;SDS011;62988;55.776;37.544;2022-11-15T08:45:42;6.05;;;1.45;;
74503;SDS011;62988;55.776;37.544;2022-11-15T08:48:09;8.73;;;1.45;;
74503;SDS011;62988;55.776;37.544;2022-11-15T08:50:35;3.28;;;1.00;;
74503;SDS011;62988;55.776;37.544;2022-11-15T08:53:04;2.35;;;0.80;;
74503;SDS011;62988;55.776;37.544;2022-11-15T08:55:35;6.25;;;1.40;;
74503;SDS011;62988;55.776;37.544;2022-11-15T08:58:03;3.97;;;1.10;;
74503;SDS011;62988;55.776;37.544;2022-11-15T09:00:28;12.15;;;1.42;;
74503;SDS011;62988;55.776;37.544;2022-11-15T09:02:54;10.80;;;1.27;;
74503;SDS011;62988;55.776;37.544;2022-11-15T09:05:20;7.75;;;1.27;;
74503;SDS011;62988;55.776;37.544;2022-11-15T09:07:45;2.38;;;0.85;;
74503;SDS011;62988;55.776;37.544;2022-11-15T09:10:11;3.53;;;1.23;;
74503;SDS011;62988;55.776;37.544;2022-11-15T09:12:36;5.35;;;1.20;;
74503;SDS011;62988;55.776;37.544;2022-11-15T09:15:02;8.45;;;2.05;;
74503;SDS011;62988;55.776;37.544;2022-11-15T09:17:28;11.75;;;2.22;;
74503;SDS011;62988;55.776;37.544;2022-11-15T09:19:54;8.23;;;2.28;;
74503;SDS011;62988;55.776;37.544;2022-11-15T09:22:19;5.68;;;2.22;;
74503;SDS011;62988;55.776;37.544;2022-11-15T09:24:45;11.80;;;2.67;;
74503;SDS011;62988;55.776;37.544;2022-11-15T09:27:11;8.30;;;2.25;;
74503;SDS011;62988;55.776;37.544;2022-11-15T09:29:37;5.82;;;1.77;;
74503;SDS011;62988;55.776;37.544;2022-11-15T09:32:03;4.50;;;1.80;;
74503;SDS011;62988;55.776;37.544;2022-11-15T09:34:28;6.13;;;2.03;;
74503;SDS011;62988;55.776;37.544;2022-11-15T09:36:54;19.38;;;2.92;;
74503;SDS011;62988;55.776;37.544;2022-11-15T09:39:19;7.75;;;2.03;;
74503;SDS011;62988;55.776;37.544;2022-11-15T09:44:31;6.82;;;2.20;;
74503;SDS011;62988;55.776;37.544;2022-11-15T09:47:28;8.48;;;2.67;;
74503;SDS011;62988;55.776;37.544;2022-11-15T09:49:58;10.65;;;2.53;;
74503;SDS011;62988;55.776;37.544;2022-11-15T09:52:27;13.77;;;1.88;;
74503;SDS011;62988;55.776;37.544;2022-11-15T09:54:52;8.30;;;2.10;;
74503;SDS011;62988;55.776;37.544;2022-11-15T09:57:32;10.35;;;2.03;;
74503;SDS011;62988;55.776;37.544;2022-11-15T10:00:38;10.23;;;1.88;;
74503;SDS011;62988;55.776;37.544;2022-11-15T10:05:41;9.65;;;1.92;;
74503;SDS011;62988;55.776;37.544;2022-11-15T10:11:20;10.20;;;1.50;;
74503;SDS011;62988;55.776;37.544;2022-11-15T10:13:50;11.25;;;1.60;;
74503;SDS011;62988;55.776;37.544;2022-11-15T10:19:14;5.78;;;1.58;;
74503;SDS011;62988;55.776;37.544;2022-11-15T10:24:28;9.68;;;1.73;;
74503;SDS011;62988;55.776;37.544;2022-11-15T10:26:59;4.65;;;1.35;;
74503;SDS011;62988;55.776;37.544;2022-11-15T10:29:25;5.32;;;1.75;;
74503;SDS011;62988;55.776;37.544;2022-11-15T10:31:51;12.77;;;1.73;;
74503;SDS011;62988;55.776;37.544;2022-11-15T10:34:20;4.53;;;1.48;;
74503;SDS011;62988;55.776;37.544;2022-11-15T10:36:58;6.63;;;1.67;;
74503;SDS011;62988;55.776;37.544;2022-11-15T10:39:25;6.68;;;1.48;;
74503;SDS011;62988;55.776;37.544;2022-11-15T10:41:51;8.50;;;2.10;;
74503;SDS011;62988;55.776;37.544;2022-11-15T10:46:44;10.32;;;1.70;;
74503;SDS011;62988;55.776;37.544;2022-11-15T10:49:23;7.72;;;2.00;;
74503;SDS011;62988;55.776;37.544;2022-11-15T10:52:02;5.75;;;1.45;;
74503;SDS011;62988;55.776;37.544;2022-11-15T10:54:46;7.40;;;1.65;;
74503;SDS011;62988;55.776;37.544;2022-11-15T10:57:18;10.93;;;1.67;;
74503;SDS011;62988;55.776;37.544;2022-11-15T10:59:46;7.63;;;1.45;;
74503;SDS011;62988;55.776;37.544;2022-11-15T11:08:05;6.75;;;1.73;;
74503;SDS011;62988;55.776;37.544;2022-11-15T11:10:52;6.43;;;1.67;;
74503;SDS011;62988;55.776;37.544;2022-11-15T11:13:28;7.10;;;1.48;;
74503;SDS011;62988;55.776;37.544;2022-11-15T11:18:40;7.53;;;1.45;;
74503;SDS011;62988;55.776;37.544;2022-11-15T11:21:10;6.40;;;1.45;;
74503;SDS011;62988;55.776;37.544;2022-11-15T11:23:53;6.43;;;1.63;;
74503;SDS011;62988;55.776;37.544;2022-11-15T11:51:26;6.30;;;1.55;;
74503;SDS011;62988;55.776;37.544;2022-11-15T11:53:59;5.00;;;1.60;;
74503;SDS011;62988;55.776;37.544;2022-11-15T11:56:31;9.73;;;1.90;;
74503;SDS011;62988;55.776;37.544;2022-11-15T11:59:16;13.50;;;2.47;;
74503;SDS011;62988;55.776;37.544;2022-11-15T12:01:55;7.15;;;2.05;;
74503;SDS011;62988;55.776;37.544;2022-11-15T12:04:30;4.75;;;1.70;;
74503;SDS011;62988;55.776;37.544;2022-11-15T12:07:17;11.30;;;2.00;;
74503;SDS011;62988;55.776;37.544;2022-11-15T12:12:35;14.60;;;1.98;;
74503;SDS011;62988;55.776;37.544;2022-11-15T12:17:35;6.65;;;2.50;;
74503;SDS011;62988;55.776;37.544;2022-11-15T12:28:24;11.73;;;1.85;;
74503;SDS011;62988;55.776;37.544;2022-11-15T12:33:49;8.55;;;2.28;;
74503;SDS011;62988;55.776;37.544;2022-11-15T12:38:56;8.20;;;1.75;;
74503;SDS011;62988;55.776;37.544;2022-11-15T13:04:50;6.90;;;1.63;;
74503;SDS011;62988;55.776;37.544;2022-11-15T13:10:07;6.90;;;1.85;;
74503;SDS011;62988;55.776;37.544;2022-11-15T13:12:53;8.80;;;2.45;;
74503;SDS011;62988;55.776;37.544;2022-11-15T13:17:50;10.25;;;2.53;;
74503;SDS011;62988;55.776;37.544;2022-11-15T13:22:59;5.60;;;1.15;;
74503;SDS011;62988;55.776;37.544;2022-11-15T13:33:59;5.20;;;2.08;;
74503;SDS011;62988;55.776;37.544;2022-11-15T13:36:31;5.65;;;1.63;;
74503;SDS011;62988;55.776;37.544;2022-11-15T13:41:31;12.02;;;1.65;;
74503;SDS011;62988;55.776;37.544;2022-11-15T13:43:58;3.97;;;1.40;;
74503;SDS011;62988;55.776;37.544;2022-11-15T13:46:26;6.53;;;1.55;;
74503;SDS011;62988;55.776;37.544;2022-11-15T13:48:59;3.58;;;0.95;;
74503;SDS011;62988;55.776;37.544;2022-11-15T13:54:09;6.40;;;1.63;;
74503;SDS011;62988;55.776;37.544;2022-11-15T13:57:02;9.10;;;1.90;;
74503;SDS011;62988;55.776;37.544;2022-11-15T13:59:43;6.82;;;1.73;;
74503;SDS011;62988;55.776;37.544;2022-11-15T14:02:13;12.18;;;1.67;;
74503;SDS011;62988;55.776;37.544;2022-11-15T14:04:49;9.40;;;1.88;;
74503;SDS011;62988;55.776;37.544;2022-11-15T14:07:21;9.02;;;2.00;;
74503;SDS011;62988;55.776;37.544;2022-11-15T14:09:52;6.47;;;1.95;;
74503;SDS011;62988;55.776;37.544;2022-11-15T14:14:50;12.48;;;2.65;;
74503;SDS011;62988;55.776;37.544;2022-11-15T14:17:19;15.77;;;3.15;;
74503;SDS011;62988;55.776;37.544;2022-11-15T14:19:54;10.18;;;2.20;;
74503;SDS011;62988;55.776;37.544;2022-11-15T14:22:21;7.97;;;2.55;;
74503;SDS011;62988;55.776;37.544;2022-11-15T14:25:24;5.65;;;2.70;;
74503;SDS011;62988;55.776;37.544;2022-11-15T14:28:07;10.30;;;2.85;;
74503;SDS011;62988;55.776;37.544;2022-11-15T14:30:41;11.18;;;2.78;;
74503;SDS011;62988;55.776;37.544;2022-11-15T14:33:24;17.05;;;3.33;;
74503;SDS011;62988;55.776;37.544;2022-11-15T14:35:50;19.10;;;3.38;;
74503;SDS011;62988;55.776;37.544;2022-11-15T14:38:17;5.30;;;2.10;;
74503;SDS011;62988;55.776;37.544;2022-11-15T14:40:43;9.55;;;2.78;;
74503;SDS011;62988;55.776;37.544;2022-11-15T14:43:09;6.28;;;2.03;;
74503;SDS011;62988;55.776;37.544;2022-11-15T14:45:36;7.75;;;1.73;;
74503;SDS011;62988;55.776;37.544;2022-11-15T14:48:02;7.75;;;2.40;;
74503;SDS011;62988;55.776;37.544;2022-11-15T14:50:28;7.22;;;2.30;;
74503;SDS011;62988;55.776;37.544;2022-11-15T14:52:54;9.05;;;2.38;;
74503;SDS011;62988;55.776;37.544;2022-11-15T14:55:23;8.10;;;2.45;;
74503;SDS011;62988;55.776;37.544;2022-11-15T14:57:54;12.73;;;2.05;;
74503;SDS011;62988;55.776;37.544;2022-11-15T15:00:20;5.25;;;1.50;;
74503;SDS011;62988;55.776;37.544;2022-11-15T15:02:47;8.57;;;2.20;;
74503;SDS011;62988;55.776;37.544;2022-11-15T15:05:18;9.60;;;2.05;;
74503;SDS011;62988;55.776;37.544;2022-11-15T15:07:44;11.13;;;2.85;;
74503;SDS011;62988;55.776;37.544;2022-11-15T15:10:10;6.72;;;2.90;;
74503;SDS011;62988;55.776;37.544;2022-11-15T15:12:36;7.95;;;2.70;;
74503;SDS011;62988;55.776;37.544;2022-11-15T15:15:02;11.73;;;2.47;;
74503;SDS011;62988;55.776;37.544;2022-11-15T15:17:28;11.30;;;3.05;;
74503;SDS011;62988;55.776;37.544;2022-11-15T15:19:54;9.45;;;2.92;;
74503;SDS011;62988;55.776;37.544;2022-11-15T15:22:19;10.98;;;3.75;;
74503;SDS011;62988;55.776;37.544;2022-11-15T15:24:50;13.23;;;4.30;;
74503;SDS011;62988;55.776;37.544;2022-11-15T15:27:16;10.18;;;4.28;;
74503;SDS011;62988;55.776;37.544;2022-11-15T15:29:41;14.27;;;5.20;;
74503;SDS011;62988;55.776;37.544;2022-11-15T15:32:07;12.38;;;4.93;;
74503;SDS011;62988;55.776;37.544;2022-11-15T15:34:33;11.82;;;5.45;;
74503;SDS011;62988;55.776;37.544;2022-11-15T15:39:37;6.53;;;2.80;;
74503;SDS011;62988;55.776;37.544;2022-11-15T15:42:03;8.52;;;3.30;;
74503;SDS011;62988;55.776;37.544;2022-11-15T15:44:29;5.13;;;2.10;;
74503;SDS011;62988;55.776;37.544;2022-11-15T15:46:54;8.55;;;2.38;;
74503;SDS011;62988;55.776;37.544;2022-11-15T15:49:20;6.80;;;2.85;;
74503;SDS011;62988;55.776;37.544;2022-11-15T15:51:45;10.05;;;2.50;;
74503;SDS011;62988;55.776;37.544;2022-11-15T15:54:11;11.48;;;2.33;;
74503;SDS011;62988;55.776;37.544;2022-11-15T15:56:36;11.07;;;2.70;;
74503;SDS011;62988;55.776;37.544;2022-11-15T15:59:02;5.95;;;2.20;;
74503;SDS011;62988;55.776;37.544;2022-11-15T16:01:27;6.80;;;1.90;;
74503;SDS011;62988;55.776;37.544;2022-11-15T16:03:53;8.02;;;2.47;;
74503;SDS011;62988;55.776;37.544;2022-11-15T16:06:25;4.30;;;2.05;;
74503;SDS011;62988;55.776;37.544;2022-11-15T16:08:59;7.32;;;2.55;;
74503;SDS011;62988;55.776;37.544;2022-11-15T16:11:25;6.00;;;1.83;;
74503;SDS011;62988;55.776;37.544;2022-11-15T16:13:50;9.70;;;2.20;;
74503;SDS011;62988;55.776;37.544;2022-11-15T16:16:16;4.38;;;1.33;;
74503;SDS011;62988;55.776;37.544;2022-11-15T16:18:43;7.00;;;1.70;;
74503;SDS011;62988;55.776;37.544;2022-11-15T16:21:08;8.93;;;2.40;;
74503;SDS011;62988;55.776;37.544;2022-11-15T16:23:34;8.25;;;2.10;;
74503;SDS011;62988;55.776;37.544;2022-11-15T16:25:59;8.40;;;2.80;;
74503;SDS011;62988;55.776;37.544;2022-11-15T16:28:28;5.47;;;2.10;;
74503;SDS011;62988;55.776;37.544;2022-11-15T16:31:02;5.10;;;1.42;;
74503;SDS011;62988;55.776;37.544;2022-11-15T16:33:29;6.75;;;2.00;;
74503;SDS011;62988;55.776;37.544;2022-11-15T16:35:55;4.55;;;1.63;;
74503;SDS011;62988;55.776;37.544;2022-11-15T16:38:21;8.18;;;2.40;;
74503;SDS011;62988;55.776;37.544;2022-11-15T16:40:46;4.43;;;1.83;;
74503;SDS011;62988;55.776;37.544;2022-11-15T16:43:12;7.25;;;2.28;;
74503;SDS011;62988;55.776;37.544;2022-11-15T16:45:38;7.80;;;3.72;;
74503;SDS011;62988;55.776;37.544;2022-11-15T16:48:03;7.43;;;2.50;;
74503;SDS011;62988;55.776;37.544;2022-11-15T16:50:30;9.88;;;2.47;;
74503;SDS011;62988;55.776;37.544;2022-11-15T16:52:59;4.60;;;2.28;;
74503;SDS011;62988;55.776;37.544;2022-11-15T16:55:26;7.60;;;2.70;;
74503;SDS011;62988;55.776;37.544;2022-11-15T16:57:53;5.82;;;2.22;;
74503;SDS011;62988;55.776;37.544;2022-11-15T17:00:22;8.50;;;2.88;;
74503;SDS011;62988;55.776;37.544;2022-11-15T17:02:49;5.85;;;2.15;;
74503;SDS011;62988;55.776;37.544;2022-11-15T17:05:16;7.65;;;2.03;;
74503;SDS011;62988;55.776;37.544;2022-11-15T17:07:46;6.68;;;2.88;;
74503;SDS011;62988;55.776;37.544;2022-11-15T17:10:18;7.45;;;2.97;;
74503;SDS011;62988;55.776;37.544;2022-11-15T17:12:45;8.93;;;2.53;;
74503;SDS011;62988;55.776;37.544;2022-11-15T17:15:11;6.85;;;2.63;;
74503;SDS011;62988;55.776;37.544;2022-11-15T17:17:38;7.15;;;3.40;;